Map

Track Data

SID SEASON NUMBER BASIN SUBBASIN NAME ISO_TIME NATURE LAT LON WMO_WIND WMO_PRES WMO_AGENCY TRACK_TYPE DIST2LAND LANDFALL IFLAG USA_AGENCY USA_ATCF_ID USA_LAT USA_LON USA_RECORD USA_STATUS USA_WIND USA_PRES USA_SSHS USA_R34_NE USA_R34_SE USA_R34_SW USA_R34_NW USA_R50_NE USA_R50_SE USA_R50_SW USA_R50_NW USA_R64_NE USA_R64_SE USA_R64_SW USA_R64_NW USA_POCI USA_ROCI USA_RMW USA_EYE TOKYO_LAT TOKYO_LON TOKYO_GRADE TOKYO_WIND TOKYO_PRES TOKYO_R50_DIR TOKYO_R50_LONG TOKYO_R50_SHORT TOKYO_R30_DIR TOKYO_R30_LONG TOKYO_R30_SHORT TOKYO_LAND CMA_LAT CMA_LON CMA_CAT CMA_WIND CMA_PRES HKO_LAT HKO_LON HKO_CAT HKO_WIND HKO_PRES NEWDELHI_LAT NEWDELHI_LON NEWDELHI_GRADE NEWDELHI_WIND NEWDELHI_PRES NEWDELHI_CI NEWDELHI_DP NEWDELHI_POCI REUNION_LAT REUNION_LON REUNION_TYPE REUNION_WIND REUNION_PRES REUNION_TNUM REUNION_CI REUNION_RMW REUNION_R34_NE REUNION_R34_SE REUNION_R34_SW REUNION_R34_NW REUNION_R50_NE REUNION_R50_SE REUNION_R50_SW REUNION_R50_NW REUNION_R64_NE REUNION_R64_SE REUNION_R64_SW REUNION_R64_NW BOM_LAT BOM_LON BOM_TYPE BOM_WIND BOM_PRES BOM_TNUM BOM_CI BOM_RMW BOM_R34_NE BOM_R34_SE BOM_R34_SW BOM_R34_NW BOM_R50_NE BOM_R50_SE BOM_R50_SW BOM_R50_NW BOM_R64_NE BOM_R64_SE BOM_R64_SW BOM_R64_NW BOM_ROCI BOM_POCI BOM_EYE BOM_POS_METHOD BOM_PRES_METHOD NADI_LAT NADI_LON NADI_CAT NADI_WIND NADI_PRES WELLINGTON_LAT WELLINGTON_LON WELLINGTON_WIND WELLINGTON_PRES DS824_LAT DS824_LON DS824_STAGE DS824_WIND DS824_PRES TD9636_LAT TD9636_LON TD9636_STAGE TD9636_WIND TD9636_PRES TD9635_LAT TD9635_LON TD9635_WIND TD9635_PRES TD9635_ROCI NEUMANN_LAT NEUMANN_LON NEUMANN_CLASS NEUMANN_WIND NEUMANN_PRES MLC_LAT MLC_LON MLC_CLASS MLC_WIND MLC_PRES USA_GUST BOM_GUST BOM_GUST_PER REUNION_GUST REUNION_GUST_PER USA_SEAHGT USA_SEARAD_NE USA_SEARAD_SE USA_SEARAD_SW USA_SEARAD_NW STORM_SPEED STORM_DIR
1946330S10057 1947 70 SI MM NOT_NAMED 1946-11-26 06:00:00 NR -10.1000 56.8000 reunion main 819 819 _____O________ -1 -10.1000 56.8000 99 9.90000 0 0
1946330S10057 1947 70 SI MM NOT_NAMED 1946-11-26 09:00:00 NR -10.1124 56.7834 main 819 819 _____P________ -1 -10.1124 56.7834 99 0 226
1946330S10057 1947 70 SI MM NOT_NAMED 1946-11-26 12:00:00 NR -10.1273 56.7588 main 819 804 _____P________ -1 -10.1273 56.7588 99 1 244
1946330S10057 1947 70 SI MM NOT_NAMED 1946-11-26 15:00:00 NR -10.1469 56.7184 main 809 809 _____P________ -1 -10.1469 56.7184 99 6 68
1946330S10057 1947 70 SI MM NOT_NAMED 1946-11-26 18:00:00 TS -9.88496 57.3595 main 888 888 O____P___OO___ jtwc_sh SH011947 -9.50000 58.3000 -1 -10.1737 56.6542 99 -9.50000 58.3000 TC -9.50000 58.3000 1 8 66
1946330S10057 1947 70 SI MM NOT_NAMED 1946-11-26 21:00:00 TS -9.81288 57.4894 main 903 893 P____P___PP___ SH011947 -9.54253 58.1200 -1 -10.2100 56.5582 99 -9.54253 58.1200 TC -9.55925 58.0906 1 1 47
1946330S10057 1947 70 SI MM NOT_NAMED 1946-11-27 00:00:00 TS -9.80828 57.4350 main 893 883 O____P___OP___ jtwc_sh SH011947 -9.60000 57.9000 -1 -10.2583 56.4225 99 -9.60000 57.9000 TC -9.62479 57.8550 1 2 261
1946330S10057 1947 70 SI MM NOT_NAMED 1946-11-27 03:00:00 TS -9.84842 57.2527 main 883 838 P____P___PP___ SH011947 -9.68491 57.6024 -1 -10.3209 56.2391 99 -9.68491 57.6024 TC -9.70296 57.5669 1 5 255
1946330S10057 1947 70 SI MM NOT_NAMED 1946-11-27 06:00:00 TS -9.95000 56.9000 reunion main 838 789 O____O___OO___ jtwc_sh SH011947 -9.80000 57.2000 -1 -10.4000 56.0000 99 9.90000 -9.80000 57.2000 TC 25 -9.80000 57.2000 1 8 254
1946330S10057 1947 70 SI MM NOT_NAMED 1946-11-27 09:00:00 TS -10.0757 56.4494 main 779 735 P____P___PP___ SH011947 -9.94254 56.6800 -1 -10.4972 55.7004 99 -9.94254 56.6800 TC 25 -9.92046 56.7371 1 10 254
1946330S10057 1947 70 SI MM NOT_NAMED 1946-11-27 12:00:00 TS -10.2183 55.9365 main 725 666 O____P___OP___ jtwc_sh SH011947 -10.1000 56.1000 -1 -10.6107 55.3486 99 -10.1000 56.1000 TC 25 -10.0627 56.1973 1 11 254
1946330S10057 1947 70 SI MM NOT_NAMED 1946-11-27 15:00:00 TS -10.3616 55.4200 main 666 612 P____P___PP___ SH011947 -10.2424 55.5574 -1 -10.7381 54.9564 99 -10.2424 55.5574 TC 25 -10.2235 55.6089 1 11 254
1946330S10057 1947 70 SI MM NOT_NAMED 1946-11-27 18:00:00 TS -10.5192 54.8839 main 612 553 O____P___OO___ jtwc_sh SH011947 -10.4000 55.0000 -1 -10.8769 54.5355 99 -10.4000 55.0000 TC 25 -10.4000 55.0000 1 11 253
1946330S10057 1947 70 SI MM NOT_NAMED 1946-11-27 21:00:00 TS -10.6947 54.3337 main 543 485 P____P___PP___ SH011947 -10.5924 54.4075 -1 -11.0248 54.0977 99 -10.5924 54.4075 TC 25 -10.5691 54.4221 1 12 252
1946330S10057 1947 70 SI MM NOT_NAMED 1946-11-28 00:00:00 TS -10.8835 53.7710 main 485 417 O____P___OP___ jtwc_sh SH011947 -10.8000 53.8000 -1 -11.1795 53.6546 99 -10.8000 53.8000 TC 25 -10.7545 53.8293 1 12 251
1946330S10057 1947 70 SI MM NOT_NAMED 1946-11-28 03:00:00 TS -11.0678 53.2137 main 417 359 P____P___PP___ SH011947 -10.9848 53.2073 -1 -11.3386 53.2181 99 -10.9848 53.2073 TC 25 -10.9627 53.2219 1 12 250
1946330S10057 1947 70 SI MM NOT_NAMED 1946-11-28 06:00:00 TS -11.2750 52.6500 reunion main 359 292 O____O___OO___ jtwc_sh SH011947 -11.2000 52.6000 -1 -11.5000 52.8000 99 9.90000 -11.2000 52.6000 TC 25 -11.2000 52.6000 1 12 248
1946330S10057 1947 70 SI MM NOT_NAMED 1946-11-28 09:00:00 TS -11.5229 52.0707 main 292 219 P____P___PP___ SH011947 -11.4849 51.9575 -1 -11.6586 52.4319 99 -11.4849 51.9575 TC 25 -11.4633 51.9361 1 13 246
1946330S10057 1947 70 SI MM NOT_NAMED 1946-11-28 12:00:00 TS -11.7944 51.4843 main 219 156 O____P___OP___ jtwc_sh SH011947 -11.8000 51.3000 -1 -11.8223 52.0745 99 -11.8000 51.3000 TC 25 -11.7553 51.2626 1 13 245
1946330S10057 1947 70 SI MM NOT_NAMED 1946-11-28 15:00:00 TS -12.0609 50.9016 main 148 93 P____P___PP___ SH011947 -12.0924 50.6349 -1 -11.9891 51.7288 99 -12.0924 50.6349 TC 25 -12.0696 50.6078 1 12 244
1946330S10057 1947 70 SI MM NOT_NAMED 1946-11-28 18:00:00 TS -12.3392 50.3488 main 85 31 O____P___OO___ jtwc_sh SH011947 -12.4000 50.0000 -1 -12.1569 51.3953 99 -12.4000 50.0000 TC 25 -12.4000 50.0000 1 12 241
1946330S10057 1947 70 SI MM NOT_NAMED 1946-11-28 21:00:00 TS -12.6350 49.8345 main 24 0 P____P___PP___ SH011947 -12.7424 49.4125 -1 -12.3240 51.0749 99 -12.7424 49.4125 TC 25 -12.7312 49.4380 1 11 238
1946330S10057 1947 70 SI MM NOT_NAMED 1946-11-29 00:00:00 TS -12.9413 49.3746 main 0 0 O____P___OP___ jtwc_sh SH011947 -13.1000 48.9000 -1 -12.4881 50.7683 99 -13.1000 48.9000 TC 25 -13.0771 48.9299 1 10 234
1946330S10057 1947 70 SI MM NOT_NAMED 1946-11-29 03:00:00 TS -13.2454 48.9707 main 0 0 P____P___PP___ SH011947 -13.4499 48.4624 -1 -12.6475 50.4764 99 -13.4499 48.4624 TC 25 -13.4345 48.4818 1 10 230
1946330S10057 1947 70 SI MM NOT_NAMED 1946-11-29 06:00:00 TS -13.5500 48.6250 reunion main 0 0 O____O___OO___ jtwc_sh SH011947 -13.8000 48.1000 -1 -12.8000 50.2000 99 9.90000 -13.8000 48.1000 TC 25 -13.8000 48.1000 1 9 227
1946330S10057 1947 70 SI MM NOT_NAMED 1946-11-29 09:00:00 TS -13.8416 48.3118 main 0 0 P____P___PP___ SH011947 -14.1424 47.7699 -1 -12.9346 49.9430 99 -14.1424 47.7699 TC 25 -14.1471 47.7645 1 8 223
1946330S10057 1947 70 SI MM NOT_NAMED 1946-11-29 12:00:00 TS -14.1417 48.0495 main 10 0 O____P___OP___ jtwc_sh SH011947 -14.5000 47.5000 -1 -13.0625 49.7037 99 -14.5000 47.5000 TC 25 -14.5045 47.4944 1 8 217
1946330S10057 1947 70 SI MM NOT_NAMED 1946-11-29 15:00:00 TS -14.4601 47.8275 main 0 0 P____P___PP___ SH011947 -14.8850 47.2774 -1 -13.1857 49.4779 99 -14.8850 47.2774 TC 25 -14.8847 47.2771 1 8 211
1946330S10057 1947 70 SI MM NOT_NAMED 1946-11-29 18:00:00 TS -14.8015 47.6403 main 10 0 O____P___OO___ jtwc_sh SH011947 -15.3000 47.1000 -1 -13.3062 49.2612 99 -15.3000 47.1000 TC 25 -15.3000 47.1000 1 8 206
1946330S10057 1947 70 SI MM NOT_NAMED 1946-11-29 21:00:00 TS -15.1599 47.4676 main 0 0 P____P___PP___ SH011947 -15.7275 46.9349 -1 -13.4260 49.0494 99 -15.7275 46.9349 TC 25 -15.7586 46.9513 1 6 199
1946330S10057 1947 70 SI MM NOT_NAMED 1946-11-30 00:00:00 TS -15.3958 47.4324 main 0 0 O____P___OP___ jtwc_sh SH011947 -16.2000 46.8000 -1 -13.5469 48.8381 99 -16.2000 46.8000 TC 25 -16.2527 46.8231 1 4 177
1946330S10057 1947 70 SI MM NOT_NAMED 1946-11-30 03:00:00 TS -15.5155 47.4679 main 0 0 P____P___PP___ SH011947 -16.7325 46.6926 -1 -13.6709 48.6231 99 -16.7325 46.6926 TC 25 -16.7705 46.7083 1 2 63
1946330S10057 1947 70 SI MM NOT_NAMED 1946-11-30 06:00:00 TS -15.3000 47.6286 reunion main 0 0 O____O___OO___ jtwc_sh SH011947 -17.3000 46.6000 -1 -13.8000 48.4000 99 9.90000 -17.3000 46.6000 TC 25 -17.3000 46.6000 7 17 23
1946330S10057 1947 70 SI MM NOT_NAMED 1946-11-30 09:00:00 NR -13.9355 48.1654 main 0 0 _____P________ SH011947 -1 -13.9355 48.1654 99 TC 7 13 13
1946330S10057 1947 70 SI MM NOT_NAMED 1946-11-30 12:00:00 NR -14.0769 47.9199 main 11 10 _____P________ -1 -14.0769 47.9199 99 7 6 239
1946330S10057 1947 70 SI MM NOT_NAMED 1946-11-30 15:00:00 NR -14.2235 47.6648 main 15 15 _____P________ -1 -14.2235 47.6648 99 7 6 239
1946330S10057 1947 70 SI MM NOT_NAMED 1946-11-30 18:00:00 NR -14.3741 47.4018 main 32 32 _____P________ -1 -14.3741 47.4018 99 6 239
1946330S10057 1947 70 SI MM NOT_NAMED 1946-11-30 21:00:00 NR -14.5280 47.1323 main 46 39 _____P________ -1 -14.5280 47.1323 99 6 239
1946330S10057 1947 70 SI MM NOT_NAMED 1946-12-01 00:00:00 NR -14.6842 46.8578 main 48 48 _____P________ -1 -14.6842 46.8578 99 6 240
1946330S10057 1947 70 SI MM NOT_NAMED 1946-12-01 03:00:00 NR -14.8418 46.5798 main 59 49 _____P________ -1 -14.8418 46.5798 99 6 240
1946330S10057 1947 70 SI MM NOT_NAMED 1946-12-01 06:00:00 NR -15.0000 46.3000 reunion main 55 _____O________ -1 -15.0000 46.3000 99 9.90000 6 240

About IBTrACS Database

This database is a web-friendly format of International Best Track Archive for Climate Stewardship (IBTrACS), a global best track data archive curated by NOAA dating back to 1842.

Updated: 2021-11-26